createdAt,value
2023-02-16T00:00:34.065Z,98351.56
2023-02-16T00:03:02.166Z,98342.75
2023-02-16T00:05:31.373Z,98349.09
2023-02-16T00:08:00.048Z,98348.63
2023-02-16T00:10:31.377Z,98352.28
2023-02-16T00:13:18.325Z,98337.69
2023-02-16T00:15:46.395Z,98343.78
2023-02-16T00:18:17.142Z,98338.75
2023-02-16T00:20:45.057Z,98348.44
2023-02-16T00:23:13.277Z,98346.91
2023-02-16T00:25:41.212Z,98342.81
2023-02-16T00:28:13.788Z,98344.84
2023-02-16T00:30:41.725Z,98340.34
2023-02-16T00:33:15.229Z,98344.22
2023-02-16T00:35:43.497Z,98346.78
2023-02-16T00:38:11.404Z,98349.81
2023-02-16T00:40:39.776Z,98346.38
2023-02-16T00:43:08.004Z,98342.66
2023-02-16T00:45:38.693Z,98333.81
2023-02-16T00:48:06.854Z,98327.34
2023-02-16T00:50:35.968Z,98329.53
2023-02-16T00:53:04.103Z,98330.91
2023-02-16T00:55:33.536Z,98327.63
2023-02-16T00:58:04.253Z,98332.00
2023-02-16T01:00:34.714Z,98320.59
2023-02-16T01:03:05.549Z,98329.84
2023-02-16T01:05:33.934Z,98327.69
2023-02-16T01:08:19.172Z,98322.16
2023-02-16T01:11:06.945Z,98326.66
2023-02-16T01:13:37.136Z,98330.94
2023-02-16T01:16:05.279Z,98331.91
2023-02-16T01:18:34.893Z,98328.94
2023-02-16T01:21:03.078Z,98332.66
2023-02-16T01:23:31.082Z,98324.69
2023-02-16T01:25:59.265Z,98331.53
2023-02-16T01:28:27.284Z,98320.19
2023-02-16T01:30:55.363Z,98319.56
2023-02-16T01:33:23.420Z,98323.56
2023-02-16T01:35:53.525Z,98321.34
2023-02-16T01:38:22.242Z,98313.81
2023-02-16T01:40:53.673Z,98313.34
2023-02-16T01:43:22.826Z,98319.50
2023-02-16T01:45:53.215Z,98316.97
2023-02-16T01:48:23.131Z,98316.69
2023-02-16T01:50:55.935Z,98314.53
2023-02-16T01:53:27.158Z,98314.63
2023-02-16T01:55:57.372Z,98305.13
2023-02-16T01:58:30.590Z,98302.97
2023-02-16T02:01:35.918Z,98306.13
2023-02-16T02:04:21.775Z,98310.31
2023-02-16T02:06:51.154Z,98311.53
2023-02-16T02:09:20.862Z,98310.50
2023-02-16T02:11:51.346Z,98300.94
2023-02-16T02:14:20.341Z,98299.22
2023-02-16T02:16:55.149Z,98298.34
2023-02-16T02:19:23.127Z,98298.34
2023-02-16T02:22:21.066Z,98304.94
2023-02-16T02:25:12.442Z,98296.25
2023-02-16T02:27:41.944Z,98294.38
2023-02-16T02:30:16.512Z,98300.75
2023-02-16T02:32:56.475Z,98290.22
2023-02-16T02:35:31.119Z,98298.91
2023-02-16T02:38:02.336Z,98301.56
2023-02-16T02:40:35.668Z,98295.47
2023-02-16T02:43:09.904Z,98290.88
2023-02-16T02:45:39.534Z,98291.50
2023-02-16T02:48:07.436Z,98295.19
2023-02-16T02:51:08.554Z,98287.22
2023-02-16T02:53:37.810Z,98289.22
2023-02-16T02:56:23.584Z,98288.06
2023-02-16T02:59:12.072Z,98276.69
2023-02-16T03:01:41.603Z,98273.38
2023-02-16T03:04:09.461Z,98275.66
2023-02-16T03:06:38.604Z,98270.44
2023-02-16T03:09:08.663Z,98279.16
2023-02-16T03:11:59.487Z,98277.06
2023-02-16T03:14:30.369Z,98277.53
2023-02-16T03:17:16.536Z,98272.44
2023-02-16T03:20:03.341Z,98272.22
2023-02-16T03:22:49.174Z,98270.91
2023-02-16T03:25:34.514Z,98268.78
2023-02-16T03:28:21.661Z,98274.88
2023-02-16T03:30:50.999Z,98262.59
2023-02-16T03:33:19.040Z,98268.69
2023-02-16T03:35:46.932Z,98256.59
2023-02-16T03:38:14.903Z,98255.19
2023-02-16T03:40:42.747Z,98259.72
2023-02-16T03:43:11.020Z,98252.00
2023-02-16T03:45:40.860Z,98245.03
2023-02-16T03:48:10.318Z,98250.22
2023-02-16T03:50:38.224Z,98243.72
2023-02-16T03:53:09.082Z,98243.41
2023-02-16T03:55:37.538Z,98245.19
2023-02-16T03:58:05.581Z,98245.53
2023-02-16T04:00:33.741Z,98237.94
2023-02-16T04:03:01.647Z,98242.53
2023-02-16T04:05:30.941Z,98253.00
2023-02-16T04:07:58.793Z,98248.63
2023-02-16T04:10:26.709Z,98244.91
2023-02-16T04:12:53.626Z,98249.50
2023-02-16T04:15:22.657Z,98250.59
2023-02-16T04:17:50.655Z,98254.94
2023-02-16T04:20:19.617Z,98252.53
2023-02-16T04:22:49.347Z,98242.06
2023-02-16T04:25:17.503Z,98246.41
2023-02-16T04:27:45.418Z,98247.34
2023-02-16T04:30:15.031Z,98254.44
2023-02-16T04:32:43.066Z,98256.88
2023-02-16T04:35:11.016Z,98259.53
2023-02-16T04:37:38.907Z,98256.47
2023-02-16T04:40:11.162Z,98261.97
2023-02-16T04:42:39.045Z,98258.41
2023-02-16T04:45:07.780Z,98256.34
2023-02-16T04:47:35.731Z,98245.44
2023-02-16T04:50:03.856Z,98251.91
2023-02-16T04:52:32.241Z,98256.84
2023-02-16T04:55:00.492Z,98253.09
2023-02-16T04:57:29.893Z,98255.94
2023-02-16T04:59:57.845Z,98255.00
2023-02-16T05:02:26.181Z,98245.41
2023-02-16T05:04:54.158Z,98239.53
2023-02-16T05:07:22.155Z,98239.16
2023-02-16T05:09:50.248Z,98243.75
2023-02-16T05:12:35.559Z,98247.31
2023-02-16T05:15:05.536Z,98248.41
2023-02-16T05:17:33.883Z,98250.56
2023-02-16T05:20:02.088Z,98251.06
2023-02-16T05:22:33.531Z,98251.38
2023-02-16T05:25:01.537Z,98247.97
2023-02-16T05:27:30.454Z,98248.47
2023-02-16T05:29:58.586Z,98255.13
2023-02-16T05:32:28.030Z,98251.31
2023-02-16T05:34:56.307Z,98248.91
2023-02-16T05:37:24.295Z,98248.75
2023-02-16T05:39:53.065Z,98253.03
2023-02-16T05:42:21.364Z,98253.66
2023-02-16T05:44:49.439Z,98250.31
2023-02-16T05:47:17.537Z,98249.16
2023-02-16T05:49:46.890Z,98251.97
2023-02-16T05:52:14.913Z,98247.56
2023-02-16T05:54:42.880Z,98260.00
2023-02-16T05:57:11.088Z,98262.78
2023-02-16T05:59:39.057Z,98267.16
2023-02-16T06:02:07.910Z,98271.59
2023-02-16T06:04:36.121Z,98260.28
2023-02-16T06:07:05.696Z,98260.28
2023-02-16T06:09:33.789Z,98264.78
2023-02-16T06:12:02.065Z,98264.94
2023-02-16T06:14:30.003Z,98260.50
2023-02-16T06:16:58.869Z,98253.69
2023-02-16T06:19:26.873Z,98259.84
2023-02-16T06:21:54.785Z,98262.13
2023-02-16T06:24:24.163Z,98257.28
2023-02-16T06:26:52.457Z,98265.28
2023-02-16T06:29:20.456Z,98257.34
2023-02-16T06:31:48.628Z,98257.28
2023-02-16T06:34:16.733Z,98259.19
2023-02-16T06:36:44.731Z,98260.56
2023-02-16T06:39:12.626Z,98254.81
2023-02-16T06:41:42.229Z,98260.97
2023-02-16T06:44:12.356Z,98261.91
2023-02-16T06:46:40.457Z,98253.53
2023-02-16T06:49:19.439Z,98262.84
2023-02-16T06:51:53.220Z,98259.06
2023-02-16T06:54:24.401Z,98259.00
2023-02-16T06:56:59.179Z,98264.88
2023-02-16T06:59:28.822Z,98259.19
2023-02-16T07:02:05.338Z,98246.53
2023-02-16T07:04:36.196Z,98252.06
2023-02-16T07:07:04.247Z,98252.78
2023-02-16T07:09:32.519Z,98261.28
2023-02-16T07:12:01.810Z,98258.41
2023-02-16T07:14:29.792Z,98257.75
2023-02-16T07:16:59.261Z,98260.47
2023-02-16T07:19:27.192Z,98256.00
2023-02-16T07:21:59.116Z,98249.56
2023-02-16T07:24:27.353Z,98250.81
2023-02-16T07:26:55.934Z,98252.03
2023-02-16T07:29:25.245Z,98251.94
2023-02-16T07:31:54.623Z,98249.50
2023-02-16T07:34:22.607Z,98259.69
2023-02-16T07:36:50.648Z,98254.47
2023-02-16T07:39:18.718Z,98256.09
2023-02-16T07:41:46.686Z,98255.03
2023-02-16T07:44:14.637Z,98247.91
2023-02-16T07:46:43.958Z,98253.84
2023-02-16T07:49:11.912Z,98259.94
2023-02-16T07:51:46.559Z,98256.88
2023-02-16T07:54:14.448Z,98242.44
2023-02-16T07:56:42.313Z,98249.47
2023-02-16T07:59:10.238Z,98259.00
2023-02-16T08:01:38.493Z,98260.53
2023-02-16T08:04:07.899Z,98246.03
2023-02-16T08:06:35.863Z,98248.22
2023-02-16T08:09:03.995Z,98241.56
2023-02-16T08:11:32.132Z,98245.16
2023-02-16T08:14:00.166Z,98246.81
2023-02-16T08:16:29.221Z,98256.47
2023-02-16T08:18:57.348Z,98248.59
2023-02-16T08:21:29.346Z,98232.94
2023-02-16T08:23:58.329Z,98234.72
2023-02-16T08:26:27.641Z,98239.25
2023-02-16T08:28:56.472Z,98233.22
2023-02-16T08:31:25.434Z,98236.69
2023-02-16T08:33:53.557Z,98238.78
2023-02-16T08:36:23.576Z,98233.34
2023-02-16T08:38:53.142Z,98235.00
2023-02-16T08:41:21.578Z,98231.81
2023-02-16T08:43:49.668Z,98236.09
2023-02-16T08:46:21.818Z,98231.66
2023-02-16T08:48:55.868Z,98225.72
2023-02-16T08:51:28.163Z,98213.88
2023-02-16T08:53:58.620Z,98229.22
2023-02-16T08:56:26.616Z,98225.56
2023-02-16T08:58:54.506Z,98219.28
2023-02-16T09:01:23.865Z,98224.28
2023-02-16T09:03:52.207Z,98235.75
2023-02-16T09:06:21.503Z,98243.53
2023-02-16T09:08:52.780Z,98242.88
2023-02-16T09:11:22.442Z,98244.66
2023-02-16T09:13:50.526Z,98251.03
2023-02-16T09:16:20.922Z,98250.66
2023-02-16T09:18:49.618Z,98263.72
2023-02-16T09:21:19.542Z,98257.88
2023-02-16T09:23:48.475Z,98244.16
2023-02-16T09:26:17.049Z,98246.13
2023-02-16T09:28:47.260Z,98255.03
2023-02-16T09:31:16.640Z,98251.44
2023-02-16T09:33:45.463Z,98256.50
2023-02-16T09:36:13.905Z,98261.50
2023-02-16T09:38:42.759Z,98253.75
2023-02-16T09:41:17.932Z,98255.91
2023-02-16T09:43:50.687Z,98250.94
2023-02-16T09:46:22.226Z,98255.41
2023-02-16T09:48:50.581Z,98251.53
2023-02-16T09:51:20.988Z,98261.31
2023-02-16T09:53:55.604Z,98251.69
2023-02-16T09:56:27.370Z,98259.03
2023-02-16T09:58:58.729Z,98250.06
2023-02-16T10:01:31.841Z,98247.28
2023-02-16T10:04:06.722Z,98246.53
2023-02-16T10:06:44.590Z,98246.56
2023-02-16T10:09:13.502Z,98243.91
2023-02-16T10:11:46.799Z,98258.69
2023-02-16T10:14:20.156Z,98258.38
2023-02-16T10:16:52.616Z,98249.13
2023-02-16T10:19:22.489Z,98252.97
2023-02-16T10:21:52.574Z,98241.13
2023-02-16T10:24:20.477Z,98241.84
2023-02-16T10:26:50.364Z,98252.34
2023-02-16T10:29:20.726Z,98257.31
2023-02-16T10:31:51.360Z,98256.72
2023-02-16T10:34:23.181Z,98256.72
2023-02-16T10:37:17.772Z,98259.03
2023-02-16T10:39:48.526Z,98265.31
2023-02-16T10:42:20.960Z,98261.63
2023-02-16T10:44:53.225Z,98262.84
2023-02-16T10:47:28.223Z,98259.69
2023-02-16T10:49:56.477Z,98261.69
2023-02-16T10:52:24.551Z,98258.13
2023-02-16T10:54:53.083Z,98253.06
2023-02-16T10:57:26.651Z,98263.38
2023-02-16T10:59:56.348Z,98255.19
2023-02-16T11:02:25.951Z,98261.13
2023-02-16T11:04:54.385Z,98265.31
2023-02-16T11:07:22.912Z,98256.72
2023-02-16T11:09:53.059Z,98258.81
2023-02-16T11:12:29.495Z,98260.06
2023-02-16T11:15:03.249Z,98258.28
2023-02-16T11:17:32.334Z,98256.19
2023-02-16T11:20:02.138Z,98259.75
2023-02-16T11:22:35.007Z,98250.13
2023-02-16T11:25:21.393Z,98246.75
2023-02-16T11:27:54.205Z,98236.47
2023-02-16T11:30:32.205Z,98234.16
2023-02-16T11:33:01.710Z,98233.84
2023-02-16T11:35:31.409Z,98230.94
2023-02-16T11:37:59.692Z,98229.25
2023-02-16T11:40:29.734Z,98231.00
2023-02-16T11:42:58.500Z,98224.56
2023-02-16T11:45:31.345Z,98223.75
2023-02-16T11:48:01.283Z,98223.44
2023-02-16T11:50:32.892Z,98210.28
2023-02-16T11:53:17.628Z,98207.94
2023-02-16T11:55:49.747Z,98207.84
2023-02-16T11:58:22.334Z,98202.38
2023-02-16T12:01:03.977Z,98201.09
2023-02-16T12:03:51.548Z,98196.50
2023-02-16T12:06:30.260Z,98197.91
2023-02-16T12:09:09.571Z,98195.84
2023-02-16T12:11:44.885Z,98193.69
2023-02-16T12:14:23.875Z,98187.09
2023-02-16T12:16:55.849Z,98185.13
2023-02-16T12:19:29.586Z,98176.50
2023-02-16T12:21:59.205Z,98177.56
2023-02-16T12:24:33.461Z,98176.16
2023-02-16T12:27:02.356Z,98180.38
2023-02-16T12:29:38.617Z,98186.09
2023-02-16T12:32:32.780Z,98167.44
2023-02-16T12:35:09.587Z,98163.16
2023-02-16T12:37:39.606Z,98161.16
2023-02-16T12:40:14.628Z,98162.41
2023-02-16T12:42:52.965Z,98157.63
2023-02-16T12:45:22.066Z,98156.06
2023-02-16T12:47:55.367Z,98164.22
2023-02-16T12:50:24.143Z,98161.44
2023-02-16T12:52:54.140Z,98168.09
2023-02-16T12:55:23.902Z,98163.63
2023-02-16T12:57:56.155Z,98154.09
2023-02-16T13:00:27.431Z,98158.44
2023-02-16T13:03:01.020Z,98151.03
2023-02-16T13:05:32.236Z,98143.78
2023-02-16T13:08:03.540Z,98145.59
2023-02-16T13:10:34.391Z,98144.31
2023-02-16T13:13:06.908Z,98143.66
2023-02-16T13:15:37.078Z,98145.47
2023-02-16T13:18:09.070Z,98137.72
2023-02-16T13:20:37.308Z,98124.16
2023-02-16T13:23:33.303Z,98143.59
2023-02-16T13:26:11.104Z,98139.34
2023-02-16T13:29:11.269Z,98140.97
2023-02-16T13:31:46.993Z,98137.56
2023-02-16T13:34:38.427Z,98127.34
2023-02-16T13:37:25.263Z,98115.75
2023-02-16T13:40:00.541Z,98115.28
2023-02-16T13:42:44.870Z,98120.34
2023-02-16T13:45:15.501Z,98113.97
2023-02-16T13:47:43.480Z,98104.13
2023-02-16T13:50:27.035Z,98093.72
2023-02-16T13:52:55.899Z,98096.84
2023-02-16T13:55:25.104Z,98099.34
2023-02-16T13:58:07.367Z,98084.38
2023-02-16T14:00:38.178Z,98081.16
2023-02-16T14:03:15.330Z,98084.53
2023-02-16T14:05:45.378Z,98086.03
2023-02-16T14:08:19.186Z,98083.00
2023-02-16T14:11:22.496Z,98076.38
2023-02-16T14:13:51.097Z,98074.19
2023-02-16T14:16:30.380Z,98065.84
2023-02-16T14:18:59.664Z,98066.81
2023-02-16T14:21:33.838Z,98061.47
2023-02-16T14:24:03.213Z,98055.25
2023-02-16T14:26:33.009Z,98054.28
2023-02-16T14:29:20.078Z,98049.63
2023-02-16T14:31:52.109Z,98049.41
2023-02-16T14:34:23.063Z,98040.84
2023-02-16T14:37:12.014Z,98045.38
2023-02-16T14:39:58.544Z,98043.06
2023-02-16T14:42:30.552Z,98034.44
2023-02-16T14:45:19.816Z,98036.75
2023-02-16T14:47:52.768Z,98038.19
2023-02-16T14:50:39.583Z,98036.41
2023-02-16T14:53:44.238Z,98037.13
2023-02-16T14:56:18.809Z,98032.16
2023-02-16T14:58:51.899Z,98034.34
2023-02-16T15:01:28.777Z,98019.34
2023-02-16T15:04:04.706Z,98039.47
2023-02-16T15:06:34.404Z,98028.94
2023-02-16T15:09:06.539Z,98025.41
2023-02-16T15:11:35.983Z,98036.13
2023-02-16T15:14:05.672Z,98032.16
2023-02-16T15:16:33.687Z,98031.28
2023-02-16T15:19:04.387Z,98030.44
2023-02-16T15:21:32.421Z,98031.66
2023-02-16T15:24:01.262Z,98030.19
2023-02-16T15:26:33.206Z,98029.00
2023-02-16T15:29:02.122Z,98024.34
2023-02-16T15:31:32.021Z,98020.69
2023-02-16T15:34:01.159Z,98021.53
2023-02-16T15:36:35.436Z,98024.91
2023-02-16T15:39:05.074Z,98014.88
2023-02-16T15:41:35.185Z,98020.13
2023-02-16T15:44:03.868Z,98013.31
2023-02-16T15:46:32.720Z,98010.94
2023-02-16T15:49:00.839Z,98012.00
2023-02-16T15:51:31.559Z,98009.78
2023-02-16T15:54:00.639Z,98011.47
2023-02-16T15:56:41.289Z,98018.69
2023-02-16T15:59:32.926Z,98018.16
2023-02-16T16:02:03.873Z,98021.31
2023-02-16T16:04:32.220Z,98029.72
2023-02-16T16:07:00.325Z,98030.84
2023-02-16T16:09:29.005Z,98032.63
2023-02-16T16:11:59.110Z,98030.13
2023-02-16T16:14:27.990Z,98026.09
2023-02-16T16:16:56.018Z,98033.22
2023-02-16T16:19:25.027Z,98030.16
2023-02-16T16:21:55.228Z,98044.53
2023-02-16T16:24:33.683Z,98033.34
2023-02-16T16:27:05.543Z,98031.72
2023-02-16T16:29:35.648Z,98033.16
2023-02-16T16:32:04.151Z,98027.75
2023-02-16T16:34:40.752Z,98034.03
2023-02-16T16:37:26.784Z,98027.84
2023-02-16T16:40:02.809Z,98031.91
2023-02-16T16:42:33.642Z,98028.50
2023-02-16T16:45:06.096Z,98033.66
2023-02-16T16:47:35.708Z,98042.97
2023-02-16T16:50:06.512Z,98032.97
2023-02-16T16:52:42.095Z,98035.66
2023-02-16T16:55:37.056Z,98039.50
2023-02-16T16:58:07.987Z,98031.94
2023-02-16T17:00:36.817Z,98037.25
2023-02-16T17:03:06.105Z,98034.91
2023-02-16T17:05:34.119Z,98027.22
2023-02-16T17:08:02.021Z,98037.63
2023-02-16T17:10:30.051Z,98021.34
2023-02-16T17:12:59.132Z,98031.56
2023-02-16T17:15:46.891Z,98035.28
2023-02-16T17:18:15.979Z,98026.56
2023-02-16T17:20:44.258Z,98037.53
2023-02-16T17:23:12.616Z,98029.09
2023-02-16T17:25:40.515Z,98025.91
2023-02-16T17:28:08.780Z,98025.50
2023-02-16T17:30:36.855Z,98025.50
2023-02-16T17:33:07.140Z,98023.78
2023-02-16T17:35:35.547Z,98030.41
2023-02-16T17:38:08.284Z,98022.09
2023-02-16T17:40:36.207Z,98019.00
2023-02-16T17:43:04.239Z,98017.94
2023-02-16T17:45:32.230Z,98022.75
2023-02-16T17:48:00.265Z,98015.28
2023-02-16T17:50:30.347Z,98017.50
2023-02-16T17:52:58.458Z,98009.91
2023-02-16T17:55:27.870Z,98022.53
2023-02-16T17:57:59.087Z,98018.56
2023-02-16T18:00:35.645Z,98023.69
2023-02-16T18:03:11.241Z,98025.41
2023-02-16T18:05:40.860Z,98032.47
2023-02-16T18:08:08.791Z,98027.22
2023-02-16T18:10:38.488Z,98033.22
2023-02-16T18:13:06.422Z,98036.13
2023-02-16T18:15:34.559Z,98042.22
2023-02-16T18:18:02.499Z,98035.47
2023-02-16T18:20:30.454Z,98029.47
2023-02-16T18:22:59.954Z,98036.53
2023-02-16T18:25:28.262Z,98029.69
2023-02-16T18:27:56.159Z,98044.66
2023-02-16T18:30:24.193Z,98044.66
2023-02-16T18:32:52.459Z,98046.56
2023-02-16T18:35:20.598Z,98046.78
2023-02-16T18:37:48.681Z,98044.84
2023-02-16T18:40:19.590Z,98037.19
2023-02-16T18:42:47.618Z,98047.72
2023-02-16T18:45:15.571Z,98048.16
2023-02-16T18:47:45.131Z,98049.56
2023-02-16T18:50:13.540Z,98058.00
2023-02-16T18:52:42.425Z,98042.94
2023-02-16T18:55:10.547Z,98042.63
2023-02-16T18:57:39.862Z,98042.19
2023-02-16T19:00:09.321Z,98047.97
2023-02-16T19:02:37.313Z,98057.16
2023-02-16T19:05:06.930Z,98052.00
2023-02-16T19:07:35.093Z,98056.72
2023-02-16T19:10:03.290Z,98059.38
2023-02-16T19:12:31.533Z,98055.94
2023-02-16T19:15:00.780Z,98062.91
2023-02-16T19:17:28.726Z,98065.66
2023-02-16T19:19:56.825Z,98065.78
2023-02-16T19:22:24.748Z,98071.22
2023-02-16T19:24:53.096Z,98082.91
2023-02-16T19:27:21.637Z,98084.56
2023-02-16T19:29:49.997Z,98089.34
2023-02-16T19:32:20.476Z,98093.47
2023-02-16T19:34:48.418Z,98096.53
2023-02-16T19:37:16.362Z,98093.00
2023-02-16T19:39:44.265Z,98097.38
2023-02-16T19:42:12.249Z,98107.47
2023-02-16T19:44:40.413Z,98109.09
2023-02-16T19:47:08.335Z,98115.56
2023-02-16T19:49:37.653Z,98126.00
2023-02-16T19:52:06.300Z,98132.91
2023-02-16T19:54:35.852Z,98135.31
2023-02-16T19:57:03.974Z,98145.81
2023-02-16T19:59:32.346Z,98149.28
2023-02-16T20:02:00.297Z,98162.03
2023-02-16T20:04:28.186Z,98177.47
2023-02-16T20:06:57.543Z,98181.88
2023-02-16T20:09:25.585Z,98187.47
2023-02-16T20:11:53.555Z,98188.91
2023-02-16T20:14:21.464Z,98197.56
2023-02-16T20:16:51.868Z,98195.84
2023-02-16T20:19:19.788Z,98192.72
2023-02-16T20:21:47.780Z,98192.81
2023-02-16T20:24:17.471Z,98193.81
2023-02-16T20:26:51.349Z,98196.16
2023-02-16T20:29:20.765Z,98196.16
2023-02-16T20:31:50.151Z,98198.97
2023-02-16T20:34:18.188Z,98194.94
2023-02-16T20:36:46.193Z,98194.16
2023-02-16T20:39:14.152Z,98192.41
2023-02-16T20:41:43.806Z,98189.75
2023-02-16T20:44:12.013Z,98186.47
2023-02-16T20:46:40.161Z,98189.91
2023-02-16T20:49:08.491Z,98189.91
2023-02-16T20:51:36.598Z,98196.28
2023-02-16T20:54:04.995Z,98211.16
2023-02-16T20:56:33.092Z,98203.53
2023-02-16T20:59:02.681Z,98215.91
2023-02-16T21:01:32.916Z,98213.25
2023-02-16T21:04:01.310Z,98209.63
2023-02-16T21:06:29.489Z,98212.59
2023-02-16T21:08:57.490Z,98201.84
2023-02-16T21:11:25.693Z,98205.34
2023-02-16T21:13:53.679Z,98211.66
2023-02-16T21:16:23.117Z,98210.22
2023-02-16T21:18:51.136Z,98201.84
2023-02-16T21:21:19.209Z,98200.22
2023-02-16T21:23:48.153Z,98200.41
2023-02-16T21:26:16.305Z,98207.06
2023-02-16T21:28:44.343Z,98201.44
2023-02-16T21:31:13.403Z,98209.84
2023-02-16T21:33:42.852Z,98198.59
2023-02-16T21:36:12.041Z,98207.28
2023-02-16T21:38:40.258Z,98211.72
2023-02-16T21:41:24.953Z,98204.59
2023-02-16T21:43:57.931Z,98199.84
2023-02-16T21:46:25.983Z,98188.88
2023-02-16T21:48:55.229Z,98192.13
2023-02-16T21:51:25.218Z,98182.50
2023-02-16T21:53:53.326Z,98184.41
2023-02-16T21:56:24.125Z,98191.28
2023-02-16T21:58:52.244Z,98191.91
2023-02-16T22:01:23.936Z,98185.84
2023-02-16T22:03:56.063Z,98184.13
2023-02-16T22:06:25.771Z,98192.00
2023-02-16T22:08:53.888Z,98188.66
2023-02-16T22:11:21.910Z,98193.91
2023-02-16T22:13:53.325Z,98192.00
2023-02-16T22:16:21.496Z,98171.84
2023-02-16T22:18:49.690Z,98192.00
2023-02-16T22:21:18.069Z,98182.69
2023-02-16T22:23:47.519Z,98168.69
2023-02-16T22:26:21.462Z,98165.16
2023-02-16T22:28:49.495Z,98168.78
2023-02-16T22:31:18.098Z,98172.75
2023-02-16T22:33:46.534Z,98168.09
2023-02-16T22:36:15.805Z,98173.50
2023-02-16T22:38:44.151Z,98168.34
2023-02-16T22:41:13.555Z,98169.75
2023-02-16T22:43:41.455Z,98170.72
2023-02-16T22:46:10.062Z,98175.66
2023-02-16T22:48:38.315Z,98177.47
2023-02-16T22:51:07.922Z,98169.97
2023-02-16T22:53:36.087Z,98172.34
2023-02-16T22:56:06.258Z,98164.91
2023-02-16T22:58:36.929Z,98167.25
2023-02-16T23:01:05.057Z,98160.91
2023-02-16T23:03:33.384Z,98164.91
2023-02-16T23:06:01.412Z,98160.72
2023-02-16T23:08:29.449Z,98160.28
2023-02-16T23:11:06.788Z,98159.69
2023-02-16T23:13:36.302Z,98164.56
2023-02-16T23:16:05.044Z,98165.91
2023-02-16T23:18:33.271Z,98172.56
2023-02-16T23:21:06.298Z,98179.50
2023-02-16T23:23:34.332Z,98171.75
2023-02-16T23:26:02.792Z,98185.78
2023-02-16T23:28:30.834Z,98182.16
2023-02-16T23:31:00.298Z,98180.44
2023-02-16T23:33:28.672Z,98176.25
2023-02-16T23:35:56.576Z,98180.34
2023-02-16T23:38:24.657Z,98171.84
2023-02-16T23:40:57.151Z,98170.56
2023-02-16T23:43:25.147Z,98170.72
2023-02-16T23:45:53.148Z,98163.66
2023-02-16T23:48:22.506Z,98165.28
2023-02-16T23:50:51.774Z,98160.56
2023-02-16T23:53:19.779Z,98167.78
2023-02-16T23:55:57.803Z,98163.56
2023-02-16T23:58:27.324Z,98167.53
